sensor_id;sensor_type;location;lat;lon;timestamp;pressure;altitude;pressure_sealevel;temperature;humidity
15750;BME280;7976;52.526;13.326;2023-03-04T00:02:13;101410.13;;;3.42;86.11
15750;BME280;7976;52.526;13.326;2023-03-04T00:04:41;101407.53;;;3.37;86.50
15750;BME280;7976;52.526;13.326;2023-03-04T00:07:08;101403.25;;;3.35;86.48
15750;BME280;7976;52.526;13.326;2023-03-04T00:09:35;101404.97;;;3.36;86.40
15750;BME280;7976;52.526;13.326;2023-03-04T00:12:03;101399.78;;;3.33;86.85
15750;BME280;7976;52.526;13.326;2023-03-04T00:14:35;101392.03;;;3.37;87.00
15750;BME280;7976;52.526;13.326;2023-03-04T00:17:02;101390.31;;;3.41;86.74
15750;BME280;7976;52.526;13.326;2023-03-04T00:19:30;101384.28;;;3.43;86.67
15750;BME280;7976;52.526;13.326;2023-03-04T00:21:59;101383.44;;;3.44;86.80
15750;BME280;7976;52.526;13.326;2023-03-04T00:24:30;101389.47;;;3.45;86.70
15750;BME280;7976;52.526;13.326;2023-03-04T00:27:03;101388.59;;;3.46;86.72
15750;BME280;7976;52.526;13.326;2023-03-04T00:29:32;101388.59;;;3.44;86.86
15750;BME280;7976;52.526;13.326;2023-03-04T00:32:00;101391.19;;;3.46;86.98
15750;BME280;7976;52.526;13.326;2023-03-04T00:34:31;101378.25;;;3.44;86.86
15750;BME280;7976;52.526;13.326;2023-03-04T00:37:02;101384.31;;;3.51;86.85
15750;BME280;7976;52.526;13.326;2023-03-04T00:39:29;101379.97;;;3.48;86.68
15750;BME280;7976;52.526;13.326;2023-03-04T00:41:57;101373.97;;;3.48;87.07
15750;BME280;7976;52.526;13.326;2023-03-04T00:44:24;101370.50;;;3.49;86.80
15750;BME280;7976;52.526;13.326;2023-03-04T00:46:54;101367.91;;;3.47;87.06
15750;BME280;7976;52.526;13.326;2023-03-04T00:49:23;101373.94;;;3.55;86.75
15750;BME280;7976;52.526;13.326;2023-03-04T00:51:59;101370.50;;;3.53;86.67
15750;BME280;7976;52.526;13.326;2023-03-04T00:54:33;101367.06;;;3.56;86.88
15750;BME280;7976;52.526;13.326;2023-03-04T01:06:13;101344.66;;;3.70;86.39
15750;BME280;7976;52.526;13.326;2023-03-04T01:08:41;101341.19;;;3.74;86.33
15750;BME280;7976;52.526;13.326;2023-03-04T01:11:11;101350.69;;;3.84;86.31
15750;BME280;7976;52.526;13.326;2023-03-04T01:13:44;101347.25;;;3.80;85.89
15750;BME280;7976;52.526;13.326;2023-03-04T01:16:18;101343.81;;;3.80;85.94
15750;BME280;7976;52.526;13.326;2023-03-04T01:18:45;101335.16;;;3.81;86.27
15750;BME280;7976;52.526;13.326;2023-03-04T01:21:15;101336.91;;;3.88;86.12
15750;BME280;7976;52.526;13.326;2023-03-04T01:23:44;101345.53;;;3.90;85.85
15750;BME280;7976;52.526;13.326;2023-03-04T01:26:12;101335.16;;;3.93;85.92
15750;BME280;7976;52.526;13.326;2023-03-04T01:28:40;101323.94;;;3.94;85.34
15750;BME280;7976;52.526;13.326;2023-03-04T01:31:11;101329.13;;;3.96;85.64
15750;BME280;7976;52.526;13.326;2023-03-04T01:33:40;101325.69;;;3.98;85.37
15750;BME280;7976;52.526;13.326;2023-03-04T01:36:09;101322.22;;;3.99;85.53
15750;BME280;7976;52.526;13.326;2023-03-04T01:38:42;101317.91;;;3.98;85.36
15750;BME280;7976;52.526;13.326;2023-03-04T01:41:13;101315.31;;;4.03;85.27
15750;BME280;7976;52.526;13.326;2023-03-04T01:43:43;101310.13;;;4.01;85.15
15750;BME280;7976;52.526;13.326;2023-03-04T01:46:12;101315.28;;;4.07;85.12
15750;BME280;7976;52.526;13.326;2023-03-04T01:48:45;101311.84;;;4.08;85.25
15750;BME280;7976;52.526;13.326;2023-03-04T01:51:16;101316.16;;;4.09;85.08
15750;BME280;7976;52.526;13.326;2023-03-04T01:53:47;101305.81;;;4.09;85.20
15750;BME280;7976;52.526;13.326;2023-03-04T01:56:23;101299.78;;;4.12;85.26
15750;BME280;7976;52.526;13.326;2023-03-04T01:59:17;101296.28;;;4.16;85.09
15750;BME280;7976;52.526;13.326;2023-03-04T02:01:46;101304.91;;;4.19;84.92
15750;BME280;7976;52.526;13.326;2023-03-04T02:04:16;101294.56;;;4.21;85.10
15750;BME280;7976;52.526;13.326;2023-03-04T02:06:45;101305.78;;;4.23;85.12
15750;BME280;7976;52.526;13.326;2023-03-04T02:09:14;101297.16;;;4.27;85.04
15750;BME280;7976;52.526;13.326;2023-03-04T02:11:44;101298.84;;;4.29;84.84
15750;BME280;7976;52.526;13.326;2023-03-04T02:14:12;101291.06;;;4.32;84.95
15750;BME280;7976;52.526;13.326;2023-03-04T02:16:41;101287.63;;;4.33;84.82
15750;BME280;7976;52.526;13.326;2023-03-04T02:19:19;101282.44;;;4.33;84.97
15750;BME280;7976;52.526;13.326;2023-03-04T02:21:50;101282.44;;;4.35;85.07
15750;BME280;7976;52.526;13.326;2023-03-04T02:24:26;101279.81;;;4.38;85.23
15750;BME280;7976;52.526;13.326;2023-03-04T02:26:56;101275.50;;;4.40;85.33
15750;BME280;7976;52.526;13.326;2023-03-04T02:29:23;101272.91;;;4.43;85.29
15750;BME280;7976;52.526;13.326;2023-03-04T02:31:52;101274.63;;;4.50;85.31
15750;BME280;7976;52.526;13.326;2023-03-04T02:34:22;101268.53;;;4.52;85.27
15750;BME280;7976;52.526;13.326;2023-03-04T02:36:52;101254.72;;;4.56;85.22
15750;BME280;7976;52.526;13.326;2023-03-04T02:39:30;101256.44;;;4.57;85.20
15750;BME280;7976;52.526;13.326;2023-03-04T02:42:03;101253.00;;;4.58;85.07
15750;BME280;7976;52.526;13.326;2023-03-04T02:44:37;101251.22;;;4.63;85.14
15750;BME280;7976;52.526;13.326;2023-03-04T02:47:11;101239.13;;;4.64;85.09
15750;BME280;7976;52.526;13.326;2023-03-04T02:49:41;101233.09;;;4.59;85.18
15750;BME280;7976;52.526;13.326;2023-03-04T02:52:12;101242.56;;;4.64;85.26
15750;BME280;7976;52.526;13.326;2023-03-04T02:54:39;101240.84;;;4.66;84.99
15750;BME280;7976;52.526;13.326;2023-03-04T02:57:11;101232.19;;;4.67;85.28
15750;BME280;7976;52.526;13.326;2023-03-04T02:59:41;101230.47;;;4.69;85.29
15750;BME280;7976;52.526;13.326;2023-03-04T03:02:12;101240.81;;;4.69;85.42
15750;BME280;7976;52.526;13.326;2023-03-04T03:04:40;101239.06;;;4.73;85.31
15750;BME280;7976;52.526;13.326;2023-03-04T03:07:11;101241.66;;;4.74;85.48
15750;BME280;7976;52.526;13.326;2023-03-04T03:09:38;101240.81;;;4.77;85.41
15750;BME280;7976;52.526;13.326;2023-03-04T03:12:07;101240.78;;;4.78;85.62
15750;BME280;7976;52.526;13.326;2023-03-04T03:14:33;101233.00;;;4.78;85.37
15750;BME280;7976;52.526;13.326;2023-03-04T03:17:03;101233.88;;;4.80;85.26
15750;BME280;7976;52.526;13.326;2023-03-04T03:19:30;101231.28;;;4.76;85.88
15750;BME280;7976;52.526;13.326;2023-03-04T03:22:00;101233.03;;;4.75;85.40
15750;BME280;7976;52.526;13.326;2023-03-04T03:24:27;101226.97;;;4.78;85.79
15750;BME280;7976;52.526;13.326;2023-03-04T03:26:58;101219.19;;;4.76;85.76
15750;BME280;7976;52.526;13.326;2023-03-04T03:29:27;101231.28;;;4.80;85.85
15750;BME280;7976;52.526;13.326;2023-03-04T03:31:54;101217.44;;;4.80;86.00
15750;BME280;7976;52.526;13.326;2023-03-04T03:34:21;101220.88;;;4.83;85.88
15750;BME280;7976;52.526;13.326;2023-03-04T03:36:49;101207.09;;;4.78;86.11
15750;BME280;7976;52.526;13.326;2023-03-04T03:39:16;101212.28;;;4.78;86.23
15750;BME280;7976;52.526;13.326;2023-03-04T03:41:44;101207.06;;;4.81;86.31
15750;BME280;7976;52.526;13.326;2023-03-04T03:44:11;101215.69;;;4.79;86.31
15750;BME280;7976;52.526;13.326;2023-03-04T03:46:39;101198.44;;;4.79;86.67
15750;BME280;7976;52.526;13.326;2023-03-04T03:49:06;101201.03;;;4.79;86.76
15750;BME280;7976;52.526;13.326;2023-03-04T03:51:33;101205.34;;;4.80;86.79
15750;BME280;7976;52.526;13.326;2023-03-04T03:54:00;101197.59;;;4.80;86.79
15750;BME280;7976;52.526;13.326;2023-03-04T03:56:28;101196.69;;;4.81;86.96
15750;BME280;7976;52.526;13.326;2023-03-04T03:58:55;101196.69;;;4.81;87.05
15750;BME280;7976;52.526;13.326;2023-03-04T04:01:23;101193.25;;;4.81;86.84
15750;BME280;7976;52.526;13.326;2023-03-04T04:03:51;101189.78;;;4.83;87.06
15750;BME280;7976;52.526;13.326;2023-03-04T04:06:18;101193.22;;;4.84;87.24
15750;BME280;7976;52.526;13.326;2023-03-04T04:08:45;101188.88;;;4.87;87.04
15750;BME280;7976;52.526;13.326;2023-03-04T04:11:12;101191.44;;;4.89;87.22
15750;BME280;7976;52.526;13.326;2023-03-04T04:13:39;101194.88;;;4.92;87.01
15750;BME280;7976;52.526;13.326;2023-03-04T04:16:08;101193.13;;;4.96;87.22
15750;BME280;7976;52.526;13.326;2023-03-04T04:18:35;101183.59;;;4.99;87.00
15750;BME280;7976;52.526;13.326;2023-03-04T04:21:04;101179.28;;;5.00;87.13
15750;BME280;7976;52.526;13.326;2023-03-04T04:23:31;101185.31;;;5.03;87.08
15750;BME280;7976;52.526;13.326;2023-03-04T04:25:58;101182.72;;;5.02;86.96
15750;BME280;7976;52.526;13.326;2023-03-04T04:28:25;101187.03;;;5.03;86.94
15750;BME280;7976;52.526;13.326;2023-03-04T04:30:52;101179.25;;;5.04;87.02
15750;BME280;7976;52.526;13.326;2023-03-04T04:33:19;101176.63;;;5.06;87.01
15750;BME280;7976;52.526;13.326;2023-03-04T04:35:46;101168.00;;;5.07;86.88
15750;BME280;7976;52.526;13.326;2023-03-04T04:38:14;101173.19;;;5.05;86.88
15750;BME280;7976;52.526;13.326;2023-03-04T04:40:41;101184.38;;;5.09;86.92
15750;BME280;7976;52.526;13.326;2023-03-04T04:43:08;101172.28;;;5.09;86.74
15750;BME280;7976;52.526;13.326;2023-03-04T04:45:35;101173.13;;;5.11;87.01
15750;BME280;7976;52.526;13.326;2023-03-04T04:48:02;101172.25;;;5.12;86.89
15750;BME280;7976;52.526;13.326;2023-03-04T04:50:29;101167.91;;;5.14;86.82
15750;BME280;7976;52.526;13.326;2023-03-04T04:52:55;101173.09;;;5.16;86.88
15750;BME280;7976;52.526;13.326;2023-03-04T04:55:24;101170.47;;;5.18;86.77
15750;BME280;7976;52.526;13.326;2023-03-04T04:57:51;101157.56;;;5.14;86.84
15750;BME280;7976;52.526;13.326;2023-03-04T05:00:19;101163.56;;;5.20;86.83
15750;BME280;7976;52.526;13.326;2023-03-04T05:02:46;101158.38;;;5.20;86.90
15750;BME280;7976;52.526;13.326;2023-03-04T05:05:13;101159.22;;;5.22;86.84
15750;BME280;7976;52.526;13.326;2023-03-04T05:07:39;101155.75;;;5.23;86.80
15750;BME280;7976;52.526;13.326;2023-03-04T05:10:08;101159.19;;;5.25;86.67
15750;BME280;7976;52.526;13.326;2023-03-04T05:12:37;101156.56;;;5.26;86.81
15750;BME280;7976;52.526;13.326;2023-03-04T05:15:04;101159.16;;;5.28;86.65
15750;BME280;7976;52.526;13.326;2023-03-04T05:17:31;101159.16;;;5.28;86.61
15750;BME280;7976;52.526;13.326;2023-03-04T05:19:58;101159.16;;;5.28;86.56
15750;BME280;7976;52.526;13.326;2023-03-04T05:22:25;101157.41;;;5.30;86.69
15750;BME280;7976;52.526;13.326;2023-03-04T05:24:52;101153.13;;;5.29;86.60
15750;BME280;7976;52.526;13.326;2023-03-04T05:27:19;101153.13;;;5.27;86.67
15750;BME280;7976;52.526;13.326;2023-03-04T05:29:47;101153.97;;;5.28;86.56
15750;BME280;7976;52.526;13.326;2023-03-04T05:32:13;101153.97;;;5.29;86.81
15750;BME280;7976;52.526;13.326;2023-03-04T05:34:40;101157.41;;;5.30;86.81
15750;BME280;7976;52.526;13.326;2023-03-04T05:37:07;101157.38;;;5.33;86.71
15750;BME280;7976;52.526;13.326;2023-03-04T05:39:34;101160.00;;;5.34;86.84
15750;BME280;7976;52.526;13.326;2023-03-04T05:42:01;101156.53;;;5.32;86.74
15750;BME280;7976;52.526;13.326;2023-03-04T05:44:34;101153.94;;;5.34;86.79
15750;BME280;7976;52.526;13.326;2023-03-04T05:47:05;101152.19;;;5.33;86.85
15750;BME280;7976;52.526;13.326;2023-03-04T05:49:32;101154.78;;;5.33;87.12
15750;BME280;7976;52.526;13.326;2023-03-04T05:51:59;101151.31;;;5.35;87.00
15750;BME280;7976;52.526;13.326;2023-03-04T05:54:26;101140.94;;;5.35;87.23
15750;BME280;7976;52.526;13.326;2023-03-04T05:56:53;101155.63;;;5.35;87.06
15750;BME280;7976;52.526;13.326;2023-03-04T05:59:21;101153.94;;;5.32;87.12
15750;BME280;7976;52.526;13.326;2023-03-04T06:01:48;101151.34;;;5.32;87.21
15750;BME280;7976;52.526;13.326;2023-03-04T06:04:16;101147.88;;;5.32;87.31
15750;BME280;7976;52.526;13.326;2023-03-04T06:06:43;101152.22;;;5.31;87.66
15750;BME280;7976;52.526;13.326;2023-03-04T06:09:11;101153.97;;;5.31;87.63
15750;BME280;7976;52.526;13.326;2023-03-04T06:11:38;101154.81;;;5.31;87.79
15750;BME280;7976;52.526;13.326;2023-03-04T06:14:05;101151.34;;;5.32;88.13
15750;BME280;7976;52.526;13.326;2023-03-04T06:16:32;101153.06;;;5.32;88.13
15750;BME280;7976;52.526;13.326;2023-03-04T06:18:59;101153.94;;;5.32;88.28
15750;BME280;7976;52.526;13.326;2023-03-04T06:21:27;101157.34;;;5.37;88.32
15750;BME280;7976;52.526;13.326;2023-03-04T06:23:54;101144.41;;;5.36;88.44
15750;BME280;7976;52.526;13.326;2023-03-04T06:26:21;101151.28;;;5.38;88.59
15750;BME280;7976;52.526;13.326;2023-03-04T06:28:48;101162.53;;;5.39;88.52
15750;BME280;7976;52.526;13.326;2023-03-04T06:31:15;101155.59;;;5.38;88.64
15750;BME280;7976;52.526;13.326;2023-03-04T06:33:41;101151.22;;;5.43;88.84
15750;BME280;7976;52.526;13.326;2023-03-04T06:36:08;101163.34;;;5.44;89.05
15750;BME280;7976;52.526;13.326;2023-03-04T06:38:36;101158.13;;;5.45;89.14
15750;BME280;7976;52.526;13.326;2023-03-04T06:41:07;101159.88;;;5.43;89.32
15750;BME280;7976;52.526;13.326;2023-03-04T06:43:35;101153.00;;;5.41;89.64
15750;BME280;7976;52.526;13.326;2023-03-04T06:46:02;101156.41;;;5.43;89.88
15750;BME280;7976;52.526;13.326;2023-03-04T06:48:29;101157.31;;;5.42;89.94
15750;BME280;7976;52.526;13.326;2023-03-04T06:50:56;101163.34;;;5.44;90.32
15750;BME280;7976;52.526;13.326;2023-03-04T06:53:23;101158.19;;;5.42;90.54
15750;BME280;7976;52.526;13.326;2023-03-04T06:55:51;101155.56;;;5.44;90.71
15750;BME280;7976;52.526;13.326;2023-03-04T06:58:17;101163.34;;;5.45;90.76
15750;BME280;7976;52.526;13.326;2023-03-04T07:00:44;101162.47;;;5.45;90.92
15750;BME280;7976;52.526;13.326;2023-03-04T07:03:11;101153.84;;;5.40;91.19
15750;BME280;7976;52.526;13.326;2023-03-04T07:05:38;101164.19;;;5.43;91.50
15750;BME280;7976;52.526;13.326;2023-03-04T07:08:05;101163.38;;;5.42;91.61
15750;BME280;7976;52.526;13.326;2023-03-04T07:10:32;101167.69;;;5.42;91.67
15750;BME280;7976;52.526;13.326;2023-03-04T07:15:54;101165.16;;;5.37;92.31
15750;BME280;7976;52.526;13.326;2023-03-04T07:18:23;101163.38;;;5.42;92.50
15750;BME280;7976;52.526;13.326;2023-03-04T07:24:06;101171.91;;;5.53;92.75
15750;BME280;7976;52.526;13.326;2023-03-04T07:26:50;101158.91;;;5.53;92.81
15750;BME280;7976;52.526;13.326;2023-03-04T07:29:18;101168.34;;;5.63;92.90
15750;BME280;7976;52.526;13.326;2023-03-04T07:31:47;101164.03;;;5.61;92.64
15750;BME280;7976;52.526;13.326;2023-03-04T07:37:30;101164.88;;;5.64;93.01
15750;BME280;7976;52.526;13.326;2023-03-04T07:40:14;101164.81;;;5.69;93.28
15750;BME280;7976;52.526;13.326;2023-03-04T07:42:49;101151.88;;;5.63;93.27
15750;BME280;7976;52.526;13.326;2023-03-04T07:45:24;101160.53;;;5.63;93.45
15750;BME280;7976;52.526;13.326;2023-03-04T07:48:08;101170.91;;;5.65;93.81
15750;BME280;7976;52.526;13.326;2023-03-04T07:50:35;101164.84;;;5.66;94.09
15750;BME280;7976;52.526;13.326;2023-03-04T07:53:02;101158.78;;;5.67;94.53
15750;BME280;7976;52.526;13.326;2023-03-04T07:55:30;101161.28;;;5.73;94.70
15750;BME280;7976;52.526;13.326;2023-03-04T07:58:00;101166.41;;;5.80;94.79
15750;BME280;7976;52.526;13.326;2023-03-04T08:00:27;101172.47;;;5.85;94.65
15750;BME280;7976;52.526;13.326;2023-03-04T08:02:56;101174.16;;;5.88;94.77
15750;BME280;7976;52.526;13.326;2023-03-04T08:05:23;101165.56;;;5.84;94.48
15750;BME280;7976;52.526;13.326;2023-03-04T08:07:50;101161.22;;;5.83;94.68
15750;BME280;7976;52.526;13.326;2023-03-04T08:10:18;101166.41;;;5.85;94.96
15750;BME280;7976;52.526;13.326;2023-03-04T08:12:45;101163.78;;;5.85;94.94
15750;BME280;7976;52.526;13.326;2023-03-04T08:15:12;101163.78;;;5.85;95.09
15750;BME280;7976;52.526;13.326;2023-03-04T08:17:39;101162.09;;;5.84;95.30
15750;BME280;7976;52.526;13.326;2023-03-04T08:20:09;101160.34;;;5.83;95.06
15750;BME280;7976;52.526;13.326;2023-03-04T08:22:36;101158.59;;;5.85;95.23
15750;BME280;7976;52.526;13.326;2023-03-04T08:25:04;101143.84;;;5.90;95.34
15750;BME280;7976;52.526;13.326;2023-03-04T08:27:31;101156.81;;;5.90;95.13
15750;BME280;7976;52.526;13.326;2023-03-04T08:29:58;101156.78;;;5.93;94.93
15750;BME280;7976;52.526;13.326;2023-03-04T08:32:25;101148.13;;;5.94;94.94
15750;BME280;7976;52.526;13.326;2023-03-04T08:34:52;101154.13;;;5.99;94.78
15750;BME280;7976;52.526;13.326;2023-03-04T08:37:22;101146.34;;;5.99;94.42
15750;BME280;7976;52.526;13.326;2023-03-04T08:39:49;101145.38;;;6.06;94.33
15750;BME280;7976;52.526;13.326;2023-03-04T08:42:15;101140.09;;;6.13;93.90
15750;BME280;7976;52.526;13.326;2023-03-04T08:44:42;101146.06;;;6.20;93.61
15750;BME280;7976;52.526;13.326;2023-03-04T08:47:09;101145.13;;;6.25;93.08
15750;BME280;7976;52.526;13.326;2023-03-04T08:49:36;101128.59;;;6.31;92.50
15750;BME280;7976;52.526;13.326;2023-03-04T08:52:04;101137.19;;;6.36;91.68
15750;BME280;7976;52.526;13.326;2023-03-04T08:54:32;101128.44;;;6.42;90.66
15750;BME280;7976;52.526;13.326;2023-03-04T08:56:59;101133.59;;;6.46;89.71
15750;BME280;7976;52.526;13.326;2023-03-04T08:59:27;101130.03;;;6.50;88.94
15750;BME280;7976;52.526;13.326;2023-03-04T09:01:54;101127.31;;;6.59;88.11
15750;BME280;7976;52.526;13.326;2023-03-04T09:04:21;101124.63;;;6.65;87.63
15750;BME280;7976;52.526;13.326;2023-03-04T09:06:48;101126.31;;;6.69;86.93
15750;BME280;7976;52.526;13.326;2023-03-04T09:09:15;101132.31;;;6.73;86.45
15750;BME280;7976;52.526;13.326;2023-03-04T09:11:43;101131.41;;;6.75;86.09
15750;BME280;7976;52.526;13.326;2023-03-04T09:14:10;101133.94;;;6.78;85.77
15750;BME280;7976;52.526;13.326;2023-03-04T09:16:37;101136.50;;;6.83;85.53
15750;BME280;7976;52.526;13.326;2023-03-04T09:19:07;101132.13;;;6.85;85.17
15750;BME280;7976;52.526;13.326;2023-03-04T09:21:34;101134.72;;;6.86;85.10
15750;BME280;7976;52.526;13.326;2023-03-04T09:24:00;101138.22;;;6.82;84.60
15750;BME280;7976;52.526;13.326;2023-03-04T09:26:28;101135.66;;;6.81;84.42
15750;BME280;7976;52.526;13.326;2023-03-04T09:29:02;101138.19;;;6.85;84.38
15750;BME280;7976;52.526;13.326;2023-03-04T09:31:29;101139.84;;;6.91;84.08
15750;BME280;7976;52.526;13.326;2023-03-04T09:33:58;101145.75;;;6.99;83.72
15750;BME280;7976;52.526;13.326;2023-03-04T09:36:25;101146.53;;;7.05;83.46
15750;BME280;7976;52.526;13.326;2023-03-04T09:38:52;101143.03;;;7.08;82.99
15750;BME280;7976;52.526;13.326;2023-03-04T09:41:38;101149.88;;;7.12;82.22
15750;BME280;7976;52.526;13.326;2023-03-04T09:44:20;101150.63;;;7.20;82.17
15750;BME280;7976;52.526;13.326;2023-03-04T09:46:50;101147.13;;;7.21;81.70
15750;BME280;7976;52.526;13.326;2023-03-04T09:49:19;101151.47;;;7.20;81.26
15750;BME280;7976;52.526;13.326;2023-03-04T09:51:58;101143.63;;;7.22;80.63
15750;BME280;7976;52.526;13.326;2023-03-04T09:54:49;101144.44;;;7.25;80.18
15750;BME280;7976;52.526;13.326;2023-03-04T09:57:29;101147.88;;;7.27;79.77
15750;BME280;7976;52.526;13.326;2023-03-04T10:00:13;101146.19;;;7.26;79.43
15750;BME280;7976;52.526;13.326;2023-03-04T10:03:09;101154.00;;;7.26;78.80
15750;BME280;7976;52.526;13.326;2023-03-04T10:05:44;101145.41;;;7.21;78.45
15750;BME280;7976;52.526;13.326;2023-03-04T10:08:30;101149.75;;;7.19;78.36
15750;BME280;7976;52.526;13.326;2023-03-04T10:11:01;101141.91;;;7.22;78.54
15750;BME280;7976;52.526;13.326;2023-03-04T10:13:37;101147.00;;;7.30;78.26
15750;BME280;7976;52.526;13.326;2023-03-04T10:16:12;101139.97;;;7.35;78.31
15750;BME280;7976;52.526;13.326;2023-03-04T10:18:47;101145.94;;;7.38;78.16
15750;BME280;7976;52.526;13.326;2023-03-04T10:21:22;101145.94;;;7.40;77.99
15750;BME280;7976;52.526;13.326;2023-03-04T10:23:49;101145.06;;;7.39;77.81
15750;BME280;7976;52.526;13.326;2023-03-04T10:26:20;101147.69;;;7.39;77.87
15750;BME280;7976;52.526;13.326;2023-03-04T10:28:48;101145.13;;;7.36;77.81
15750;BME280;7976;52.526;13.326;2023-03-04T10:31:26;101149.53;;;7.33;77.48
15750;BME280;7976;52.526;13.326;2023-03-04T10:33:55;101151.22;;;7.35;77.15
15750;BME280;7976;52.526;13.326;2023-03-04T10:36:43;101138.03;;;7.44;76.38
15750;BME280;7976;52.526;13.326;2023-03-04T10:39:20;101143.00;;;7.58;75.48
15750;BME280;7976;52.526;13.326;2023-03-04T10:41:56;101139.38;;;7.67;74.01
15750;BME280;7976;52.526;13.326;2023-03-04T10:44:24;101134.94;;;7.72;73.04
15750;BME280;7976;52.526;13.326;2023-03-04T10:46:54;101143.47;;;7.78;72.52
15750;BME280;7976;52.526;13.326;2023-03-04T10:49:23;101137.31;;;7.84;71.82
15750;BME280;7976;52.526;13.326;2023-03-04T10:51:53;101135.63;;;7.80;71.00
15750;BME280;7976;52.526;13.326;2023-03-04T10:54:27;101122.69;;;7.77;70.30
15750;BME280;7976;52.526;13.326;2023-03-04T10:56:59;101137.44;;;7.76;70.14
15750;BME280;7976;52.526;13.326;2023-03-04T10:59:43;101129.53;;;7.81;70.08
15750;BME280;7976;52.526;13.326;2023-03-04T11:02:26;101143.31;;;7.86;69.50
15750;BME280;7976;52.526;13.326;2023-03-04T11:05:15;101139.78;;;7.90;69.44
15750;BME280;7976;52.526;13.326;2023-03-04T11:07:45;101142.28;;;7.94;69.24
15750;BME280;7976;52.526;13.326;2023-03-04T11:10:19;101145.63;;;8.01;68.96
15750;BME280;7976;52.526;13.326;2023-03-04T11:12:52;101139.44;;;8.06;68.71
15750;BME280;7976;52.526;13.326;2023-03-04T11:15:25;101144.69;;;8.05;68.01
15750;BME280;7976;52.526;13.326;2023-03-04T11:17:58;101151.72;;;8.00;68.16
15750;BME280;7976;52.526;13.326;2023-03-04T11:20:31;101154.47;;;7.94;68.19
15750;BME280;7976;52.526;13.326;2023-03-04T11:23:04;101150.16;;;7.91;68.08
15750;BME280;7976;52.526;13.326;2023-03-04T11:25:35;101141.47;;;7.91;68.32
15750;BME280;7976;52.526;13.326;2023-03-04T11:28:12;101144.84;;;7.96;68.34
15750;BME280;7976;52.526;13.326;2023-03-04T11:30:49;101144.78;;;8.00;68.23
15750;BME280;7976;52.526;13.326;2023-03-04T11:33:32;101150.06;;;7.96;68.17
15750;BME280;7976;52.526;13.326;2023-03-04T11:36:17;101152.81;;;7.90;68.10
15750;BME280;7976;52.526;13.326;2023-03-04T11:38:49;101153.72;;;7.86;68.31
15750;BME280;7976;52.526;13.326;2023-03-04T11:41:24;101154.69;;;7.82;68.35
15750;BME280;7976;52.526;13.326;2023-03-04T11:43:55;101164.22;;;7.83;68.42
15750;BME280;7976;52.526;13.326;2023-03-04T11:46:53;101153.94;;;7.77;67.95
15750;BME280;7976;52.526;13.326;2023-03-04T11:50:04;101153.13;;;7.73;67.87
15750;BME280;7976;52.526;13.326;2023-03-04T11:52:59;101152.38;;;7.67;67.39
15750;BME280;7976;52.526;13.326;2023-03-04T11:55:39;101154.16;;;7.64;67.28
15750;BME280;7976;52.526;13.326;2023-03-04T11:58:35;101152.47;;;7.60;67.13
15750;BME280;7976;52.526;13.326;2023-03-04T12:01:13;101152.56;;;7.56;66.55
15750;BME280;7976;52.526;13.326;2023-03-04T12:04:09;101170.88;;;7.53;65.75
15750;BME280;7976;52.526;13.326;2023-03-04T12:06:54;101149.22;;;7.49;65.53
15750;BME280;7976;52.526;13.326;2023-03-04T12:09:39;101157.03;;;7.49;65.38
15750;BME280;7976;52.526;13.326;2023-03-04T12:12:34;101155.25;;;7.53;65.20
15750;BME280;7976;52.526;13.326;2023-03-04T12:15:18;101160.41;;;7.54;65.27
15750;BME280;7976;52.526;13.326;2023-03-04T12:18:17;101158.59;;;7.59;65.15
15750;BME280;7976;52.526;13.326;2023-03-04T12:21:02;101150.66;;;7.65;64.69
15750;BME280;7976;52.526;13.326;2023-03-04T12:24:02;101145.28;;;7.75;64.30
15750;BME280;7976;52.526;13.326;2023-03-04T12:26:39;101149.53;;;7.80;64.28
15750;BME280;7976;52.526;13.326;2023-03-04T12:29:20;101152.94;;;7.82;64.00
15750;BME280;7976;52.526;13.326;2023-03-04T12:32:01;101146.88;;;7.82;63.70
15750;BME280;7976;52.526;13.326;2023-03-04T12:34:49;101146.06;;;7.80;63.73
15750;BME280;7976;52.526;13.326;2023-03-04T12:37:59;101146.09;;;7.78;63.52
15750;BME280;7976;52.526;13.326;2023-03-04T12:40:46;101159.13;;;7.77;63.49
15750;BME280;7976;52.526;13.326;2023-03-04T12:43:38;101158.28;;;7.76;63.34
15750;BME280;7976;52.526;13.326;2023-03-04T12:46:26;101152.22;;;7.74;63.20
15750;BME280;7976;52.526;13.326;2023-03-04T12:49:14;101154.84;;;7.74;63.05
15750;BME280;7976;52.526;13.326;2023-03-04T12:51:54;101162.66;;;7.74;62.97
15750;BME280;7976;52.526;13.326;2023-03-04T12:54:31;101154.97;;;7.68;63.10
15750;BME280;7976;52.526;13.326;2023-03-04T12:57:07;101153.19;;;7.68;63.54
15750;BME280;7976;52.526;13.326;2023-03-04T12:59:40;101148.72;;;7.77;63.50
15750;BME280;7976;52.526;13.326;2023-03-04T13:02:28;101150.38;;;7.81;62.78
15750;BME280;7976;52.526;13.326;2023-03-04T13:05:14;101148.59;;;7.83;62.11
15750;BME280;7976;52.526;13.326;2023-03-04T13:07:55;101143.34;;;7.84;62.31
15750;BME280;7976;52.526;13.326;2023-03-04T13:10:25;101149.50;;;7.82;62.17
15750;BME280;7976;52.526;13.326;2023-03-04T13:12:54;101146.88;;;7.82;62.04
15750;BME280;7976;52.526;13.326;2023-03-04T13:15:32;101148.69;;;7.78;61.93
15750;BME280;7976;52.526;13.326;2023-03-04T13:18:14;101148.78;;;7.72;61.99
15750;BME280;7976;52.526;13.326;2023-03-04T13:21:17;101152.38;;;7.67;62.31
15750;BME280;7976;52.526;13.326;2023-03-04T13:23:46;101158.50;;;7.64;62.75
15750;BME280;7976;52.526;13.326;2023-03-04T13:26:24;101155.06;;;7.62;62.58
15750;BME280;7976;52.526;13.326;2023-03-04T13:29:30;101156.84;;;7.60;62.93
15750;BME280;7976;52.526;13.326;2023-03-04T13:32:00;101155.06;;;7.62;63.03
15750;BME280;7976;52.526;13.326;2023-03-04T13:34:48;101157.69;;;7.60;62.61
15750;BME280;7976;52.526;13.326;2023-03-04T13:37:32;101152.50;;;7.59;62.73
15750;BME280;7976;52.526;13.326;2023-03-04T13:40:34;101156.06;;;7.56;62.74
15750;BME280;7976;52.526;13.326;2023-03-04T13:43:24;101153.47;;;7.53;62.87
15750;BME280;7976;52.526;13.326;2023-03-04T13:45:52;101146.53;;;7.54;62.91